Time;durP1;ratioP1;P1;durP2;ratioP2;P2;SDS_P1;SDS_P2;PMS_P1;PMS_P2;Temp;Humidity;BMP_temperature;BMP_pressure;BME280_temperature;BME280_humidity;BME280_pressure;Samples;Min_cycle;Max_cycle;Signal;HPM_P1;HPM_P2
2021/05/17 00:00:42;;;;;;;;;;;13.70;92.20;;;;;;5072365;28;19916;-70
2021/05/17 00:03:09;;;;;;;;;;;13.70;91.70;;;;;;5072296;28;20008;-67
2021/05/17 00:05:36;;;;;;;;;;;13.80;92.10;;;;;;5089526;28;19912;-68
2021/05/17 00:08:03;;;;;;;;;;;13.80;92.10;;;;;;5113869;28;19943;-70
2021/05/17 00:10:31;;;;;;;;;;;13.90;92.20;;;;;;5113721;28;19908;-69
2021/05/17 00:12:58;;;;;;;;;;;13.90;91.90;;;;;;5113323;28;20010;-69
2021/05/17 00:15:25;;;;;;;;;;;14.00;91.80;;;;;;5113754;28;19911;-68
2021/05/17 00:17:54;;;;;;;;;;;14.00;91.80;;;;;;5113483;28;19957;-68
2021/05/17 00:20:22;;;;;;;;;;;14.10;91.80;;;;;;5113480;28;19907;-70
2021/05/17 00:22:49;;;;;;;;;;;14.20;91.30;;;;;;5113309;28;20006;-69
2021/05/17 00:25:22;;;;;;;;;;;14.30;91.60;;;;;;5113351;28;19919;-69
2021/05/17 00:27:51;;;;;;;;;;;14.30;91.30;;;;;;5113374;28;19920;-69
2021/05/17 00:30:18;;;;;;;;;;;14.30;91.90;;;;;;5113312;28;19915;-69
2021/05/17 00:32:45;;;;;;;;;;;14.30;91.30;;;;;;5112942;28;19922;-69
2021/05/17 00:35:13;;;;;;;;;;;14.40;91.00;;;;;;5113371;28;20351;-68
2021/05/17 00:37:40;;;;;;;;;;;14.40;91.20;;;;;;5113295;28;20355;-69
2021/05/17 00:40:07;;;;;;;;;;;14.50;91.30;;;;;;5113273;28;19940;-68
2021/05/17 00:42:34;;;;;;;;;;;14.60;91.00;;;;;;5112867;28;19914;-69
2021/05/17 00:45:01;;;;;;;;;;;14.60;90.90;;;;;;5113203;28;20358;-70
2021/05/17 00:47:29;;;;;;;;;;;14.60;90.80;;;;;;5112951;28;20389;-70
2021/05/17 00:49:57;;;;;;;;;;;14.60;91.10;;;;;;5113300;28;20381;-70
2021/05/17 00:52:26;;;;;;;;;;;14.60;91.10;;;;;;5113188;28;19919;-69
2021/05/17 00:54:53;;;;;;;;;;;14.80;90.80;;;;;;5113077;28;19908;-69
2021/05/17 00:57:20;;;;;;;;;;;14.90;90.70;;;;;;5113148;28;20301;-68
2021/05/17 00:59:47;;;;;;;;;;;15.10;90.90;;;;;;5113261;28;20380;-70
2021/05/17 01:02:13;;;;;;;;;;;15.20;90.60;;;;;;5112949;28;19995;-70
2021/05/17 01:04:40;;;;;;;;;;;15.70;89.30;;;;;;5113119;28;19908;-68
2021/05/17 01:07:07;;;;;;;;;;;15.90;88.30;;;;;;5112800;28;19923;-70
2021/05/17 01:09:34;;;;;;;;;;;16.00;88.70;;;;;;5113058;28;19946;-70
2021/05/17 01:12:02;;;;;;;;;;;16.20;87.60;;;;;;5113071;28;20288;-70
2021/05/17 01:14:33;;;;;;;;;;;16.50;86.90;;;;;;5112966;28;19908;-71
2021/05/17 01:17:00;;;;;;;;;;;16.80;85.90;;;;;;5112738;28;19916;-70
2021/05/17 01:19:47;;;;;;;;;;;16.60;86.20;;;;;;5113143;28;19999;-71
2021/05/17 01:22:22;;;;;;;;;;;16.60;86.30;;;;;;5101723;28;19908;-73
2021/05/17 01:24:49;;;;;;;;;;;16.40;85.60;;;;;;5116423;28;19907;-70
2021/05/17 01:27:16;;;;;;;;;;;16.20;87.00;;;;;;5116835;28;19920;-70
2021/05/17 01:29:43;;;;;;;;;;;16.10;87.80;;;;;;5116678;28;19908;-70
2021/05/17 01:32:10;;;;;;;;;;;16.00;88.10;;;;;;5116551;28;19911;-70
2021/05/17 01:34:37;;;;;;;;;;;16.10;88.10;;;;;;5116613;28;19919;-70
2021/05/17 01:37:07;;;;;;;;;;;16.00;88.70;;;;;;5116385;28;19947;-69
2021/05/17 01:39:35;;;;;;;;;;;16.00;86.20;;;;;;5116507;28;20370;-70
2021/05/17 01:42:01;;;;;;;;;;;15.90;87.70;;;;;;5116342;28;20388;-69
2021/05/17 01:44:29;;;;;;;;;;;15.90;87.50;;;;;;5116252;28;19920;-69
2021/05/17 01:46:59;;;;;;;;;;;15.90;86.90;;;;;;5115836;28;19920;-69
2021/05/17 01:49:26;;;;;;;;;;;16.00;87.40;;;;;;5116183;28;19916;-69
2021/05/17 01:51:53;;;;;;;;;;;15.90;87.80;;;;;;5116112;28;19921;-69
2021/05/17 01:54:20;;;;;;;;;;;15.80;88.10;;;;;;5116202;28;19908;-69
2021/05/17 01:56:47;;;;;;;;;;;15.90;86.80;;;;;;5116098;28;19953;-69
2021/05/17 01:59:14;;;;;;;;;;;16.00;86.80;;;;;;5116044;28;20407;-69
2021/05/17 02:01:40;;;;;;;;;;;16.20;85.80;;;;;;5115963;28;20340;-68
2021/05/17 02:04:07;;;;;;;;;;;16.20;85.80;;;;;;5114615;28;19907;-69
2021/05/17 02:06:34;;;;;;;;;;;16.20;85.20;;;;;;5115746;28;19937;-68
2021/05/17 02:09:01;;;;;;;;;;;16.20;86.00;;;;;;5115727;28;20282;-69
2021/05/17 02:11:27;;;;;;;;;;;16.30;86.40;;;;;;5115814;28;20316;-69
2021/05/17 02:13:54;;;;;;;;;;;16.30;85.20;;;;;;5115739;28;19915;-66
2021/05/17 02:16:21;;;;;;;;;;;16.30;85.70;;;;;;5115508;28;19912;-68
2021/05/17 02:18:49;;;;;;;;;;;16.50;85.20;;;;;;5115494;28;19908;-68
2021/05/17 02:21:16;;;;;;;;;;;16.50;85.00;;;;;;5115435;28;20140;-67
2021/05/17 02:23:43;;;;;;;;;;;16.40;85.30;;;;;;5115497;28;19915;-69
2021/05/17 02:26:10;;;;;;;;;;;16.50;86.50;;;;;;5115135;28;19962;-69
2021/05/17 02:28:38;;;;;;;;;;;16.40;86.30;;;;;;5115516;28;19935;-67
2021/05/17 02:31:08;;;;;;;;;;;16.50;85.20;;;;;;5114989;28;20366;-70
2021/05/17 02:33:35;;;;;;;;;;;16.40;85.70;;;;;;5115333;28;19914;-69
2021/05/17 02:36:03;;;;;;;;;;;16.50;85.20;;;;;;5113933;28;19996;-68
2021/05/17 02:38:29;;;;;;;;;;;16.50;85.80;;;;;;5115301;28;19915;-69
2021/05/17 02:40:57;;;;;;;;;;;16.40;85.90;;;;;;5115036;28;19912;-69
2021/05/17 02:43:24;;;;;;;;;;;16.40;85.60;;;;;;5115039;28;19920;-71
2021/05/17 02:45:51;;;;;;;;;;;16.20;85.20;;;;;;5114978;28;19935;-67
2021/05/17 02:48:20;;;;;;;;;;;16.20;85.10;;;;;;5115176;28;20246;-69
2021/05/17 02:50:48;;;;;;;;;;;16.10;86.80;;;;;;5114960;28;19907;-69
2021/05/17 02:53:33;;;;;;;;;;;16.20;86.80;;;;;;5114922;28;19911;-69
2021/05/17 02:56:09;;;;;;;;;;;16.40;85.70;;;;;;5115019;28;19919;-69
2021/05/17 02:58:37;;;;;;;;;;;16.40;85.00;;;;;;5114031;28;20327;-69
2021/05/17 03:01:11;;;;;;;;;;;16.70;86.20;;;;;;5114792;28;19912;-69
2021/05/17 03:03:44;;;;;;;;;;;16.90;85.30;;;;;;5114907;28;19908;-68
2021/05/17 03:06:16;;;;;;;;;;;16.80;85.00;;;;;;5114735;28;19912;-67
2021/05/17 03:08:53;;;;;;;;;;;16.90;84.80;;;;;;5114626;28;19911;-68
2021/05/17 03:11:21;;;;;;;;;;;16.80;83.80;;;;;;5114927;28;19908;-69
2021/05/17 03:13:48;;;;;;;;;;;16.70;84.70;;;;;;5114614;28;19961;-68
2021/05/17 03:16:16;;;;;;;;;;;16.70;85.20;;;;;;5114285;28;20274;-67
2021/05/17 03:18:42;;;;;;;;;;;16.70;85.00;;;;;;5114465;28;20358;-68
2021/05/17 03:21:09;;;;;;;;;;;16.70;84.90;;;;;;5114536;28;19908;-67
2021/05/17 03:23:36;;;;;;;;;;;16.70;84.90;;;;;;5114391;28;20010;-67
2021/05/17 03:26:03;;;;;;;;;;;16.70;84.60;;;;;;5114488;28;19975;-69
2021/05/17 03:28:30;;;;;;;;;;;16.60;85.00;;;;;;5114306;28;20053;-66
2021/05/17 03:30:56;;;;;;;;;;;16.40;85.40;;;;;;5114027;28;19911;-68
2021/05/17 03:33:23;;;;;;;;;;;16.30;85.70;;;;;;5114373;28;19908;-67
2021/05/17 03:35:50;;;;;;;;;;;16.50;84.80;;;;;;5114374;28;19908;-68
2021/05/17 03:38:16;;;;;;;;;;;16.60;85.00;;;;;;5113982;28;19933;-68
2021/05/17 03:40:43;;;;;;;;;;;16.60;84.30;;;;;;5114072;28;19922;-67
2021/05/17 03:43:09;;;;;;;;;;;16.50;85.10;;;;;;5113866;28;19954;-69
2021/05/17 03:45:36;;;;;;;;;;;16.70;85.20;;;;;;5113451;28;19912;-67
2021/05/17 03:48:03;;;;;;;;;;;16.70;85.50;;;;;;5114143;28;19912;-68
2021/05/17 03:50:30;;;;;;;;;;;16.70;84.90;;;;;;5114009;28;19976;-68
2021/05/17 03:52:56;;;;;;;;;;;16.60;86.80;;;;;;5113711;28;19922;-68
2021/05/17 03:55:23;;;;;;;;;;;16.50;85.00;;;;;;5113943;28;19994;-69
2021/05/17 03:57:50;;;;;;;;;;;16.50;85.50;;;;;;5114026;28;19929;-69
2021/05/17 04:00:17;;;;;;;;;;;16.30;86.00;;;;;;5113574;28;20278;-70
2021/05/17 04:02:44;;;;;;;;;;;16.30;86.40;;;;;;5113722;28;19943;-71
2021/05/17 04:07:54;;;;;;;;;;;16.30;86.60;;;;;;5113615;28;19916;-68
2021/05/17 04:13:23;;;;;;;;;;;16.20;87.00;;;;;;5114003;28;19959;-69
2021/05/17 04:15:51;;;;;;;;;;;16.50;86.50;;;;;;5113631;28;19912;-69
2021/05/17 04:18:18;;;;;;;;;;;16.60;84.80;;;;;;5113639;28;20099;-68
2021/05/17 04:20:45;;;;;;;;;;;16.60;85.10;;;;;;5113493;28;20346;-68
2021/05/17 04:23:12;;;;;;;;;;;16.70;84.80;;;;;;5114068;28;20307;-69
2021/05/17 04:25:38;;;;;;;;;;;16.60;85.00;;;;;;5114480;28;19908;-69
2021/05/17 04:28:05;;;;;;;;;;;16.60;84.70;;;;;;5113771;28;20358;-69
2021/05/17 04:30:32;;;;;;;;;;;16.40;84.70;;;;;;5113533;28;20408;-70
2021/05/17 04:32:59;;;;;;;;;;;16.40;85.50;;;;;;5114029;28;20277;-70
2021/05/17 04:35:26;;;;;;;;;;;16.40;85.40;;;;;;5113878;28;19918;-67
2021/05/17 04:37:52;;;;;;;;;;;16.40;85.00;;;;;;5113746;28;20161;-69
2021/05/17 04:40:19;;;;;;;;;;;16.30;85.90;;;;;;5113722;28;19954;-68
2021/05/17 04:42:46;;;;;;;;;;;16.30;86.10;;;;;;5113377;28;19950;-70
2021/05/17 04:45:12;;;;;;;;;;;16.20;86.70;;;;;;5113768;28;20007;-69
2021/05/17 04:47:39;;;;;;;;;;;16.10;87.20;;;;;;5113929;28;19915;-68
2021/05/17 04:50:07;;;;;;;;;;;16.10;87.50;;;;;;5113389;28;19912;-68
2021/05/17 04:52:34;;;;;;;;;;;16.00;88.40;;;;;;5112996;28;19915;-69
2021/05/17 04:55:01;;;;;;;;;;;16.00;89.30;;;;;;5112883;28;19915;-68
2021/05/17 04:57:28;;;;;;;;;;;16.00;90.10;;;;;;5113270;28;20431;-67
2021/05/17 04:59:54;;;;;;;;;;;16.00;90.20;;;;;;5116990;28;19908;-67
2021/05/17 05:02:21;;;;;;;;;;;16.00;90.40;;;;;;5117283;28;19908;-67
2021/05/17 05:04:48;;;;;;;;;;;16.00;90.50;;;;;;5117297;28;20345;-69
2021/05/17 05:07:15;;;;;;;;;;;16.00;90.40;;;;;;5116881;28;19916;-68
2021/05/17 05:09:45;;;;;;;;;;;16.00;90.70;;;;;;5117029;28;19908;-68
2021/05/17 05:12:12;;;;;;;;;;;16.10;90.50;;;;;;5117207;28;20003;-70
2021/05/17 05:14:38;;;;;;;;;;;16.20;90.30;;;;;;5117000;28;20006;-70
2021/05/17 05:17:05;;;;;;;;;;;16.20;89.80;;;;;;5116602;28;19908;-70
2021/05/17 05:19:32;;;;;;;;;;;16.20;88.70;;;;;;5116787;28;20286;-70
2021/05/17 05:21:58;;;;;;;;;;;16.20;88.60;;;;;;5116801;28;19926;-70
2021/05/17 05:24:25;;;;;;;;;;;16.10;90.00;;;;;;5116385;28;20324;-69
2021/05/17 05:27:01;;;;;;;;;;;16.10;89.90;;;;;;5116274;28;20361;-70
2021/05/17 05:29:38;;;;;;;;;;;16.10;90.20;;;;;;5115254;28;19908;-71
2021/05/17 05:34:49;;;;;;;;;;;16.00;90.30;;;;;;5116480;28;19907;-69
2021/05/17 05:37:16;;;;;;;;;;;15.90;90.70;;;;;;5116666;28;19927;-71
2021/05/17 05:39:43;;;;;;;;;;;15.90;91.00;;;;;;5116390;28;19908;-70
2021/05/17 05:42:10;;;;;;;;;;;15.80;90.70;;;;;;5116509;28;19908;-71
2021/05/17 05:44:43;;;;;;;;;;;15.80;90.70;;;;;;5116157;28;20415;-70
2021/05/17 05:47:14;;;;;;;;;;;15.80;90.90;;;;;;5116517;28;19968;-70
2021/05/17 05:49:41;;;;;;;;;;;15.80;90.90;;;;;;5116569;28;19907;-70
2021/05/17 05:52:08;;;;;;;;;;;15.70;90.80;;;;;;5116266;28;19914;-70
2021/05/17 05:54:35;;;;;;;;;;;15.70;91.10;;;;;;5116336;28;20318;-71
2021/05/17 05:57:02;;;;;;;;;;;15.70;91.40;;;;;;5116000;28;19908;-70
2021/05/17 05:59:28;;;;;;;;;;;15.70;91.00;;;;;;5115973;28;20312;-70
2021/05/17 06:01:55;;;;;;;;;;;15.70;91.00;;;;;;5116032;28;19930;-70
2021/05/17 06:04:22;;;;;;;;;;;15.70;91.00;;;;;;5116135;28;19908;-71
2021/05/17 06:06:48;;;;;;;;;;;15.70;90.60;;;;;;5115762;28;20427;-70
2021/05/17 06:09:15;;;;;;;;;;;15.60;90.80;;;;;;5115881;28;19908;-69
2021/05/17 06:11:42;;;;;;;;;;;15.70;90.90;;;;;;5115947;28;20339;-69
2021/05/17 06:14:09;;;;;;;;;;;15.70;90.80;;;;;;5116012;28;19958;-70
2021/05/17 06:16:36;;;;;;;;;;;15.60;91.50;;;;;;5114382;28;19912;-69
2021/05/17 06:19:03;;;;;;;;;;;15.60;91.20;;;;;;5115779;28;20339;-71
2021/05/17 06:21:30;;;;;;;;;;;15.60;91.30;;;;;;5115883;28;20007;-70
2021/05/17 06:23:58;;;;;;;;;;;15.50;91.70;;;;;;5115581;28;19919;-71
2021/05/17 06:26:25;;;;;;;;;;;15.40;91.70;;;;;;5115562;28;19916;-71
2021/05/17 06:28:52;;;;;;;;;;;15.30;92.40;;;;;;5115593;28;19962;-70
2021/05/17 06:31:21;;;;;;;;;;;15.20;92.60;;;;;;5115416;28;20311;-69
2021/05/17 06:33:48;;;;;;;;;;;15.20;92.30;;;;;;5115537;28;20329;-70
2021/05/17 06:36:16;;;;;;;;;;;15.10;92.30;;;;;;5115263;28;20266;-67
2021/05/17 06:38:43;;;;;;;;;;;15.10;93.00;;;;;;5115373;28;20471;-67
2021/05/17 06:41:10;;;;;;;;;;;15.10;92.70;;;;;;5115464;28;19914;-69
2021/05/17 06:43:37;;;;;;;;;;;15.00;93.00;;;;;;5115379;28;19927;-70
2021/05/17 06:46:07;;;;;;;;;;;15.00;92.80;;;;;;5114924;28;19955;-67
2021/05/17 06:48:41;;;;;;;;;;;15.00;93.20;;;;;;5115191;28;19946;-68
2021/05/17 06:51:19;;;;;;;;;;;14.90;93.40;;;;;;5115107;28;19915;-68
2021/05/17 06:53:48;;;;;;;;;;;14.90;93.30;;;;;;5115004;28;20000;-70
2021/05/17 06:56:28;;;;;;;;;;;14.90;93.70;;;;;;5115026;28;19907;-70
2021/05/17 06:58:57;;;;;;;;;;;14.90;93.70;;;;;;5114822;28;19908;-66
2021/05/17 07:01:25;;;;;;;;;;;14.80;94.00;;;;;;5114917;28;19908;-71
2021/05/17 07:03:52;;;;;;;;;;;14.80;93.80;;;;;;5114905;28;19908;-71
2021/05/17 07:06:30;;;;;;;;;;;14.80;94.10;;;;;;5114754;28;20431;-67
2021/05/17 07:12:43;;;;;;;;;;;14.80;94.10;;;;;;5115200;28;19952;-70
2021/05/17 07:14:38;;;;;;;;;;;14.80;94.50;;;;;;5109668;28;20412;-71
2021/05/17 07:17:06;;;;;;;;;;;14.90;94.10;;;;;;5114480;28;19908;-71
2021/05/17 07:19:33;;;;;;;;;;;14.90;94.40;;;;;;5114648;28;19939;-71
2021/05/17 07:24:44;;;;;;;;;;;14.80;94.70;;;;;;5073587;28;19954;-69
2021/05/17 07:27:11;;;;;;;;;;;14.90;94.60;;;;;;5073276;28;19916;-69
2021/05/17 07:29:39;;;;;;;;;;;14.90;94.80;;;;;;5073691;28;19908;-69
2021/05/17 07:32:08;;;;;;;;;;;14.90;94.90;;;;;;5073634;28;19909;-67
2021/05/17 07:34:36;;;;;;;;;;;15.00;94.50;;;;;;5073552;28;20000;-70
2021/05/17 07:37:03;;;;;;;;;;;14.90;95.00;;;;;;5073276;28;19955;-70
2021/05/17 07:39:30;;;;;;;;;;;14.90;94.70;;;;;;5073086;28;20310;-70
2021/05/17 07:41:57;;;;;;;;;;;15.00;94.70;;;;;;5070298;28;19919;-69
2021/05/17 07:44:24;;;;;;;;;;;15.00;94.60;;;;;;5071143;28;19955;-69
2021/05/17 07:46:50;;;;;;;;;;;15.00;94.50;;;;;;5071267;28;19959;-70
2021/05/17 07:49:23;;;;;;;;;;;15.00;94.60;;;;;;5071403;28;20045;-70
2021/05/17 07:51:49;;;;;;;;;;;15.00;94.70;;;;;;5071250;28;19909;-70
2021/05/17 07:54:19;;;;;;;;;;;15.00;94.70;;;;;;5070741;28;19917;-69
2021/05/17 07:56:45;;;;;;;;;;;14.90;95.10;;;;;;5070960;28;20464;-69
2021/05/17 07:59:12;;;;;;;;;;;14.80;95.70;;;;;;5071070;28;19948;-66
2021/05/17 08:01:39;;;;;;;;;;;14.80;95.50;;;;;;5071252;28;19988;-70
2021/05/17 08:04:06;;;;;;;;;;;14.80;95.30;;;;;;5071239;28;20421;-69
2021/05/17 08:06:32;;;;;;;;;;;14.80;95.10;;;;;;5070637;28;19919;-71
2021/05/17 08:08:59;;;;;;;;;;;14.70;95.40;;;;;;5070836;28;20358;-71
2021/05/17 08:11:25;;;;;;;;;;;14.70;95.50;;;;;;5071033;28;20276;-69
2021/05/17 08:13:53;;;;;;;;;;;14.70;95.30;;;;;;5071129;28;20375;-70
2021/05/17 08:16:20;;;;;;;;;;;14.70;95.30;;;;;;5071029;28;19974;-70
2021/05/17 08:18:48;;;;;;;;;;;14.70;95.20;;;;;;5070611;28;19916;-71
2021/05/17 08:21:15;;;;;;;;;;;14.70;95.30;;;;;;5070502;28;19908;-70
2021/05/17 08:23:42;;;;;;;;;;;14.80;95.20;;;;;;5070765;28;19955;-67
2021/05/17 08:26:08;;;;;;;;;;;14.80;95.40;;;;;;5070475;28;19919;-69
2021/05/17 08:28:41;;;;;;;;;;;14.90;95.20;;;;;;5070617;28;19912;-70
2021/05/17 08:31:13;;;;;;;;;;;14.90;95.30;;;;;;5070544;28;19912;-70
2021/05/17 08:33:41;;;;;;;;;;;14.90;95.30;;;;;;5070499;28;19908;-71
2021/05/17 08:36:08;;;;;;;;;;;14.80;95.60;;;;;;5070627;28;20030;-69
2021/05/17 08:38:35;;;;;;;;;;;14.80;95.60;;;;;;5070798;28;19912;-69
2021/05/17 08:41:02;;;;;;;;;;;14.80;95.70;;;;;;5070692;28;19912;-70
2021/05/17 08:43:29;;;;;;;;;;;14.70;96.00;;;;;;5070340;28;20382;-68
2021/05/17 08:45:56;;;;;;;;;;;14.70;96.10;;;;;;5069982;28;19912;-68
2021/05/17 08:48:23;;;;;;;;;;;14.70;96.30;;;;;;5070985;28;19927;-68
2021/05/17 08:50:50;;;;;;;;;;;14.60;96.30;;;;;;5070490;28;19919;-69
2021/05/17 08:53:16;;;;;;;;;;;14.60;96.20;;;;;;5070529;28;19966;-70
2021/05/17 08:55:43;;;;;;;;;;;14.50;96.50;;;;;;5070293;28;20288;-70
2021/05/17 08:58:10;;;;;;;;;;;14.50;96.60;;;;;;5069062;28;19954;-69
2021/05/17 09:00:36;;;;;;;;;;;14.40;96.50;;;;;;5070432;28;19952;-69
2021/05/17 09:03:03;;;;;;;;;;;14.40;96.70;;;;;;5070301;28;19908;-69
2021/05/17 09:05:36;;;;;;;;;;;14.50;96.20;;;;;;5071540;28;19909;-69
2021/05/17 09:08:03;;;;;;;;;;;14.50;96.20;;;;;;5072530;28;20034;-69
2021/05/17 09:10:35;;;;;;;;;;;14.50;96.10;;;;;;5072786;28;19909;-70
2021/05/17 09:13:06;;;;;;;;;;;14.50;96.20;;;;;;5072038;28;19909;-70
2021/05/17 09:15:40;;;;;;;;;;;14.40;96.30;;;;;;5072506;28;19934;-70
2021/05/17 09:18:22;;;;;;;;;;;14.40;96.10;;;;;;5076243;28;19908;-70
2021/05/17 09:20:50;;;;;;;;;;;14.40;96.20;;;;;;5092516;28;19908;-70
2021/05/17 09:23:18;;;;;;;;;;;14.50;96.40;;;;;;5092403;28;20327;-69
2021/05/17 09:26:03;;;;;;;;;;;14.40;96.60;;;;;;5092300;28;19923;-69
2021/05/17 09:28:31;;;;;;;;;;;14.40;96.70;;;;;;5092566;28;19934;-70
2021/05/17 09:31:06;;;;;;;;;;;14.40;96.50;;;;;;5092051;28;20290;-67
2021/05/17 09:34:05;;;;;;;;;;;14.30;96.20;;;;;;5091883;28;19908;-70
2021/05/17 09:36:36;;;;;;;;;;;14.40;96.10;;;;;;5080166;28;19908;-68
2021/05/17 09:39:02;;;;;;;;;;;14.30;96.10;;;;;;5092758;28;20286;-66
2021/05/17 09:41:49;;;;;;;;;;;14.20;95.90;;;;;;5092296;28;20282;-69
2021/05/17 09:44:19;;;;;;;;;;;14.20;96.00;;;;;;5092821;28;19977;-69
2021/05/17 09:46:56;;;;;;;;;;;14.10;96.10;;;;;;5095618;28;19916;-67
2021/05/17 09:49:33;;;;;;;;;;;14.10;95.30;;;;;;5095360;28;19908;-69
2021/05/17 09:52:07;;;;;;;;;;;14.00;94.80;;;;;;5097798;28;19915;-69
2021/05/17 09:54:46;;;;;;;;;;;14.10;94.90;;;;;;5096898;28;19908;-69
2021/05/17 09:57:16;;;;;;;;;;;14.00;95.10;;;;;;5096992;28;19915;-68
2021/05/17 09:59:44;;;;;;;;;;;14.00;94.60;;;;;;5106018;28;19920;-67
2021/05/17 10:02:25;;;;;;;;;;;14.00;94.40;;;;;;5110044;28;20481;-70
2021/05/17 10:04:52;;;;;;;;;;;14.00;94.30;;;;;;5103917;28;19912;-68
2021/05/17 10:07:18;;;;;;;;;;;13.90;94.40;;;;;;5094437;28;19971;-70
2021/05/17 10:09:45;;;;;;;;;;;13.90;94.70;;;;;;5094119;28;19912;-69
2021/05/17 10:12:12;;;;;;;;;;;13.80;94.70;;;;;;5093887;28;19908;-69
2021/05/17 10:14:38;;;;;;;;;;;13.80;94.90;;;;;;5093596;28;19951;-69
2021/05/17 10:17:05;;;;;;;;;;;13.70;94.60;;;;;;5093531;28;19915;-70
2021/05/17 10:19:32;;;;;;;;;;;13.80;95.10;;;;;;5092795;28;19955;-68
2021/05/17 10:22:00;;;;;;;;;;;13.70;94.90;;;;;;5093195;28;19991;-68
2021/05/17 10:24:26;;;;;;;;;;;13.70;95.10;;;;;;5093316;28;19919;-69
2021/05/17 10:26:54;;;;;;;;;;;13.60;94.80;;;;;;5092849;28;19924;-70
2021/05/17 10:29:29;;;;;;;;;;;13.60;94.30;;;;;;5092648;28;20269;-69
2021/05/17 10:31:59;;;;;;;;;;;13.60;94.00;;;;;;5093123;28;19927;-69
2021/05/17 10:34:26;;;;;;;;;;;13.70;93.80;;;;;;5092542;28;19942;-69
2021/05/17 10:37:02;;;;;;;;;;;13.70;94.40;;;;;;5092814;28;19919;-69
2021/05/17 10:39:40;;;;;;;;;;;13.70;94.50;;;;;;5093076;28;19974;-67
2021/05/17 10:42:31;;;;;;;;;;;13.70;93.80;;;;;;5092417;28;20282;-67
2021/05/17 10:47:49;;;;;;;;;;;13.60;93.70;;;;;;5072007;28;19965;-69
2021/05/17 10:50:18;;;;;;;;;;;13.60;93.60;;;;;;5072346;28;20374;-69
2021/05/17 10:52:45;;;;;;;;;;;13.60;93.60;;;;;;5072284;28;20355;-72
2021/05/17 10:55:13;;;;;;;;;;;13.60;93.40;;;;;;5071351;28;19908;-67
2021/05/17 10:57:58;;;;;;;;;;;13.60;93.50;;;;;;5071680;28;20383;-67
2021/05/17 11:00:26;;;;;;;;;;;13.60;93.30;;;;;;5072230;28;19922;-69
2021/05/17 11:03:11;;;;;;;;;;;13.60;93.30;;;;;;5071458;28;19912;-69
2021/05/17 11:05:39;;;;;;;;;;;13.60;92.90;;;;;;5072067;28;20279;-68
2021/05/17 11:08:09;;;;;;;;;;;13.60;92.90;;;;;;5071775;28;19928;-69
2021/05/17 11:10:40;;;;;;;;;;;13.50;92.80;;;;;;5072043;28;20013;-70
2021/05/17 11:13:11;;;;;;;;;;;13.50;93.00;;;;;;5071706;28;20339;-68
2021/05/17 11:15:47;;;;;;;;;;;13.50;92.80;;;;;;5071850;28;20387;-68
2021/05/17 11:18:14;;;;;;;;;;;13.50;92.80;;;;;;5071294;28;19919;-69
2021/05/17 11:20:41;;;;;;;;;;;13.50;93.10;;;;;;5071767;28;19922;-67
2021/05/17 11:23:09;;;;;;;;;;;13.40;92.70;;;;;;5071437;28;19916;-70
2021/05/17 11:25:45;;;;;;;;;;;13.40;92.60;;;;;;5071928;28;20019;-67
2021/05/17 11:28:12;;;;;;;;;;;13.40;92.70;;;;;;5071538;28;20571;-69
2021/05/17 11:30:39;;;;;;;;;;;13.40;93.00;;;;;;5071839;28;20359;-69
2021/05/17 11:33:17;;;;;;;;;;;13.30;93.20;;;;;;5071154;28;19966;-71
2021/05/17 11:36:03;;;;;;;;;;;13.30;93.40;;;;;;5071453;28;20550;-70
2021/05/17 11:38:30;;;;;;;;;;;13.30;93.10;;;;;;5067807;28;19916;-69
2021/05/17 11:40:57;;;;;;;;;;;13.20;93.30;;;;;;5062241;28;20026;-70
2021/05/17 11:43:23;;;;;;;;;;;13.20;93.40;;;;;;5061045;28;19947;-71
2021/05/17 11:45:50;;;;;;;;;;;13.20;93.30;;;;;;5073194;28;20323;-70
2021/05/17 11:48:17;;;;;;;;;;;13.20;93.10;;;;;;5073244;28;20016;-70
2021/05/17 11:50:44;;;;;;;;;;;13.10;93.20;;;;;;5071862;28;19915;-70
2021/05/17 11:53:15;;;;;;;;;;;13.10;93.50;;;;;;5071321;28;19908;-71
2021/05/17 11:55:51;;;;;;;;;;;13.10;93.30;;;;;;5071235;28;19986;-70
2021/05/17 11:58:24;;;;;;;;;;;13.10;93.50;;;;;;5071202;28;19947;-69
2021/05/17 12:01:10;;;;;;;;;;;13.10;93.60;;;;;;5070735;28;19944;-71
2021/05/17 12:03:42;;;;;;;;;;;13.00;93.50;;;;;;5071112;28;19915;-71
2021/05/17 12:06:09;;;;;;;;;;;13.00;93.70;;;;;;5071083;28;19916;-71
2021/05/17 12:08:38;;;;;;;;;;;12.90;93.80;;;;;;5070976;28;19916;-70
2021/05/17 12:11:14;;;;;;;;;;;12.90;94.00;;;;;;5071106;28;20422;-70
2021/05/17 12:13:47;;;;;;;;;;;12.80;94.50;;;;;;5070651;28;19908;-70
2021/05/17 12:16:24;;;;;;;;;;;12.80;94.30;;;;;;5071133;28;20362;-70
2021/05/17 12:18:57;;;;;;;;;;;12.80;93.70;;;;;;5070933;28;19935;-70
2021/05/17 12:21:24;;;;;;;;;;;12.80;93.80;;;;;;5071188;28;20003;-71
2021/05/17 12:23:51;;;;;;;;;;;12.80;93.70;;;;;;5071132;28;19913;-68
2021/05/17 12:26:18;;;;;;;;;;;12.80;93.70;;;;;;5070609;28;20267;-71
2021/05/17 12:28:47;;;;;;;;;;;12.70;93.70;;;;;;5070695;28;19908;-71
2021/05/17 12:31:22;;;;;;;;;;;12.70;94.00;;;;;;5070984;28;19913;-71
2021/05/17 12:33:49;;;;;;;;;;;12.70;94.10;;;;;;5070953;28;19922;-71
2021/05/17 12:36:15;;;;;;;;;;;12.70;94.10;;;;;;5070923;28;19967;-68
2021/05/17 12:38:46;;;;;;;;;;;12.70;93.70;;;;;;5070725;28;19957;-70
2021/05/17 12:41:31;;;;;;;;;;;12.70;93.70;;;;;;5070533;28;20287;-70
2021/05/17 12:43:57;;;;;;;;;;;12.60;93.40;;;;;;5070619;28;19928;-70
2021/05/17 12:46:27;;;;;;;;;;;12.60;93.60;;;;;;5070807;28;19916;-68
2021/05/17 12:48:56;;;;;;;;;;;12.60;93.70;;;;;;5070708;28;19932;-71
2021/05/17 12:51:27;;;;;;;;;;;12.50;94.10;;;;;;5070954;28;20007;-71
2021/05/17 12:53:55;;;;;;;;;;;12.50;93.80;;;;;;5070217;28;19947;-69
2021/05/17 12:56:29;;;;;;;;;;;12.50;94.00;;;;;;5070532;28;19923;-71
2021/05/17 12:58:56;;;;;;;;;;;12.50;94.30;;;;;;5070366;28;19954;-69
2021/05/17 13:01:23;;;;;;;;;;;12.60;94.30;;;;;;5070632;28;19920;-71
2021/05/17 13:03:56;;;;;;;;;;;12.50;94.00;;;;;;5070721;28;19954;-69
2021/05/17 13:06:28;;;;;;;;;;;12.50;94.10;;;;;;5070058;28;19916;-69
2021/05/17 13:09:03;;;;;;;;;;;12.50;94.20;;;;;;5070301;28;19963;-69
2021/05/17 13:11:39;;;;;;;;;;;12.40;94.00;;;;;;5070482;28;19954;-66
2021/05/17 13:14:17;;;;;;;;;;;12.50;93.70;;;;;;5070492;28;19913;-68
2021/05/17 13:16:44;;;;;;;;;;;12.40;93.70;;;;;;5070270;28;19908;-69
2021/05/17 13:23:02;;;;;;;;;;;12.30;93.80;;;;;;5074380;28;20359;-68
2021/05/17 13:25:19;;;;;;;;;;;12.30;93.50;;;;;;5076149;28;19908;-69
2021/05/17 13:33:01;;;;;;;;;;;12.30;93.50;;;;;;5073897;28;19913;-69
2021/05/17 13:35:27;;;;;;;;;;;12.30;93.60;;;;;;5074274;28;20070;-68
2021/05/17 13:37:54;;;;;;;;;;;12.20;93.80;;;;;;5074808;28;19908;-69
2021/05/17 13:40:21;;;;;;;;;;;12.30;93.70;;;;;;5075835;28;20359;-68
2021/05/17 13:42:48;;;;;;;;;;;12.20;93.60;;;;;;5075294;28;19956;-68
2021/05/17 13:45:16;;;;;;;;;;;12.30;93.70;;;;;;5075802;28;20039;-69
2021/05/17 13:47:43;;;;;;;;;;;12.20;93.70;;;;;;5076218;28;19916;-67
2021/05/17 13:50:11;;;;;;;;;;;12.20;93.60;;;;;;5075310;28;19908;-69
2021/05/17 13:52:38;;;;;;;;;;;12.20;93.60;;;;;;5073763;28;19913;-69
2021/05/17 13:55:06;;;;;;;;;;;12.10;93.50;;;;;;5073445;28;19916;-68
2021/05/17 13:57:33;;;;;;;;;;;12.10;93.60;;;;;;5073394;28;20368;-70
2021/05/17 13:59:59;;;;;;;;;;;12.10;93.90;;;;;;5073415;28;19908;-70
2021/05/17 14:02:26;;;;;;;;;;;12.10;93.90;;;;;;5073460;28;19914;-70
2021/05/17 14:04:53;;;;;;;;;;;12.10;94.00;;;;;;5073328;28;19916;-68
2021/05/17 14:07:20;;;;;;;;;;;12.00;94.20;;;;;;5075401;28;19916;-70
2021/05/17 14:09:46;;;;;;;;;;;12.00;94.30;;;;;;5075680;28;19912;-70
2021/05/17 14:12:13;;;;;;;;;;;12.00;94.40;;;;;;5075353;28;19952;-70
2021/05/17 14:14:40;;;;;;;;;;;11.90;94.50;;;;;;5075459;28;19914;-70
2021/05/17 14:17:06;;;;;;;;;;;11.90;94.50;;;;;;5075043;28;19912;-70
2021/05/17 14:19:33;;;;;;;;;;;11.90;94.60;;;;;;5075402;28;19915;-69
2021/05/17 14:22:00;;;;;;;;;;;11.80;94.70;;;;;;5075312;28;19909;-68
2021/05/17 14:24:27;;;;;;;;;;;11.80;94.70;;;;;;5075227;28;19999;-69
2021/05/17 14:26:54;;;;;;;;;;;11.80;94.80;;;;;;5074759;28;19942;-70
2021/05/17 14:29:20;;;;;;;;;;;11.80;94.70;;;;;;5075012;28;19931;-68
2021/05/17 14:31:47;;;;;;;;;;;11.80;94.80;;;;;;5074708;28;20215;-66
2021/05/17 14:34:14;;;;;;;;;;;11.70;94.90;;;;;;5075065;28;20334;-68
2021/05/17 14:36:40;;;;;;;;;;;11.70;94.80;;;;;;5075080;28;19909;-71
2021/05/17 14:39:08;;;;;;;;;;;11.70;94.90;;;;;;5074726;28;19915;-69
2021/05/17 14:41:35;;;;;;;;;;;11.70;95.10;;;;;;5074781;28;20041;-69
2021/05/17 14:44:02;;;;;;;;;;;11.70;95.30;;;;;;5074590;28;19921;-68
2021/05/17 14:46:29;;;;;;;;;;;11.70;95.10;;;;;;5074730;28;20015;-69
2021/05/17 14:48:55;;;;;;;;;;;11.60;95.10;;;;;;5074624;28;19948;-69
2021/05/17 14:51:22;;;;;;;;;;;11.60;95.10;;;;;;5074816;28;20255;-68